createdAt,value
2018-09-18T00:01:27.924Z,23.70
2018-09-18T00:03:56.251Z,23.70
2018-09-18T00:06:24.602Z,23.70
2018-09-18T00:08:52.954Z,23.70
2018-09-18T00:11:21.304Z,23.70
2018-09-18T00:13:49.654Z,23.70
2018-09-18T00:16:18.047Z,23.70
2018-09-18T00:18:46.439Z,23.70
2018-09-18T00:21:26.277Z,23.70
2018-09-18T00:23:54.627Z,23.70
2018-09-18T00:26:22.958Z,23.70
2018-09-18T00:28:51.329Z,23.70
2018-09-18T00:31:19.706Z,23.70
2018-09-18T00:33:48.075Z,23.70
2018-09-18T00:36:16.438Z,23.70
2018-09-18T00:38:44.820Z,23.70
2018-09-18T00:41:13.189Z,23.70
2018-09-18T00:43:41.543Z,23.70
2018-09-18T00:46:09.876Z,23.70
2018-09-18T00:48:38.220Z,23.60
2018-09-18T00:51:06.589Z,23.60
2018-09-18T00:53:34.967Z,23.70
2018-09-18T00:56:03.346Z,23.60
2018-09-18T00:58:31.685Z,23.60
2018-09-18T01:01:00.019Z,23.60
2018-09-18T01:03:28.370Z,23.70
2018-09-18T01:05:56.767Z,23.70
2018-09-18T01:08:25.110Z,23.60
2018-09-18T01:10:53.471Z,23.60
2018-09-18T01:13:21.815Z,23.60
2018-09-18T01:15:50.166Z,23.60
2018-09-18T01:18:18.523Z,23.60
2018-09-18T01:20:46.887Z,23.60
2018-09-18T01:23:15.276Z,23.60
2018-09-18T01:25:43.659Z,23.70
2018-09-18T01:28:12.070Z,23.60
2018-09-18T01:30:40.525Z,23.60
2018-09-18T01:33:08.874Z,23.60
2018-09-18T01:35:37.243Z,23.60
2018-09-18T01:38:05.610Z,23.60
2018-09-18T01:40:33.963Z,23.60
2018-09-18T01:43:02.427Z,23.60
2018-09-18T01:45:30.787Z,23.60
2018-09-18T01:47:59.156Z,23.60
2018-09-18T01:50:27.519Z,23.60
2018-09-18T01:52:55.888Z,23.60
2018-09-18T01:55:24.268Z,23.60
2018-09-18T01:57:52.619Z,23.50
2018-09-18T02:00:20.968Z,23.60
2018-09-18T02:02:49.313Z,23.60
2018-09-18T02:05:17.663Z,23.60
2018-09-18T02:07:46.027Z,23.60
2018-09-18T02:10:14.375Z,23.60
2018-09-18T02:12:42.770Z,23.60
2018-09-18T02:15:11.134Z,23.60
2018-09-18T02:17:39.486Z,23.60
2018-09-18T02:20:07.866Z,23.60
2018-09-18T02:22:36.326Z,23.60
2018-09-18T02:25:04.705Z,23.50
2018-09-18T02:27:33.084Z,23.50
2018-09-18T02:30:01.439Z,23.60
2018-09-18T02:32:29.826Z,23.50
2018-09-18T02:34:58.271Z,23.50
2018-09-18T02:37:26.664Z,23.50
2018-09-18T02:39:55.016Z,23.50
2018-09-18T02:42:23.419Z,23.50
2018-09-18T02:44:52.118Z,23.50
2018-09-18T02:47:20.591Z,23.50
2018-09-18T02:49:49.336Z,23.50
2018-09-18T02:52:17.847Z,23.50
2018-09-18T02:54:46.204Z,23.50
2018-09-18T02:57:14.748Z,23.50
2018-09-18T02:59:43.116Z,23.50
2018-09-18T03:02:11.479Z,23.50
2018-09-18T03:04:39.960Z,23.50
2018-09-18T03:07:08.357Z,23.50
2018-09-18T03:09:36.724Z,23.40
2018-09-18T03:12:05.097Z,23.50
2018-09-18T03:14:33.538Z,23.50
2018-09-18T03:17:01.898Z,23.50
2018-09-18T03:19:30.253Z,23.50
2018-09-18T03:21:58.655Z,23.50
2018-09-18T03:24:27.031Z,23.50
2018-09-18T03:26:55.426Z,23.40
2018-09-18T03:29:23.824Z,23.40
2018-09-18T03:31:52.211Z,23.40
2018-09-18T03:34:20.570Z,23.40
2018-09-18T03:36:48.979Z,23.50
2018-09-18T03:39:17.368Z,23.40
2018-09-18T03:41:45.770Z,23.50
2018-09-18T03:44:14.134Z,23.40
2018-09-18T03:46:42.663Z,23.40
2018-09-18T03:49:11.032Z,23.40
2018-09-18T03:51:39.408Z,23.40
2018-09-18T03:54:07.794Z,23.40
2018-09-18T03:56:36.168Z,23.40
2018-09-18T03:59:04.562Z,23.40
2018-09-18T04:01:32.962Z,23.40
2018-09-18T04:04:01.334Z,23.40
2018-09-18T04:06:29.691Z,23.40
2018-09-18T04:08:58.223Z,23.40
2018-09-18T04:11:26.605Z,23.40
2018-09-18T04:13:55.000Z,23.40
2018-09-18T04:16:23.381Z,23.30
2018-09-18T04:18:51.792Z,23.40
2018-09-18T04:21:20.155Z,23.30
2018-09-18T04:23:48.520Z,23.30
2018-09-18T04:26:17.330Z,23.30
2018-09-18T04:28:45.891Z,23.30
2018-09-18T04:31:14.294Z,23.40
2018-09-18T04:33:42.686Z,23.30
2018-09-18T04:36:11.132Z,23.30
2018-09-18T04:38:39.534Z,23.30
2018-09-18T04:41:07.912Z,23.30
2018-09-18T04:43:36.308Z,23.30
2018-09-18T04:46:04.720Z,23.30
2018-09-18T04:48:33.067Z,23.30
2018-09-18T04:51:01.472Z,23.30
2018-09-18T04:53:29.836Z,23.30
2018-09-18T04:55:58.224Z,23.30
2018-09-18T04:58:26.599Z,23.30
2018-09-18T05:00:55.300Z,23.30
2018-09-18T05:03:23.721Z,23.30
2018-09-18T05:05:52.167Z,23.30
2018-09-18T05:08:20.693Z,23.30
2018-09-18T05:10:50.234Z,23.30
2018-09-18T05:13:30.598Z,23.30
2018-09-18T05:15:59.959Z,23.30
2018-09-18T05:18:28.386Z,23.30
2018-09-18T05:20:56.811Z,23.30
2018-09-18T05:23:25.251Z,23.30
2018-09-18T05:25:53.698Z,23.30
2018-09-18T05:28:22.115Z,23.30
2018-09-18T05:30:50.539Z,23.30
2018-09-18T05:33:18.951Z,23.30
2018-09-18T05:35:47.401Z,23.20
2018-09-18T05:38:15.884Z,23.30
2018-09-18T05:40:44.462Z,23.30
2018-09-18T05:43:13.089Z,23.30
2018-09-18T05:45:41.521Z,23.30
2018-09-18T05:48:12.179Z,23.40
2018-09-18T05:50:40.958Z,23.40
2018-09-18T05:53:09.936Z,23.40
2018-09-18T05:55:38.373Z,23.50
2018-09-18T05:58:06.841Z,23.50
2018-09-18T06:00:35.314Z,23.50
2018-09-18T06:03:03.722Z,23.50
2018-09-18T06:05:32.145Z,23.50
2018-09-18T06:08:00.551Z,23.60
2018-09-18T06:10:29.021Z,23.60
2018-09-18T06:12:57.442Z,23.60
2018-09-18T06:15:25.854Z,23.70
2018-09-18T06:17:54.283Z,23.70
2018-09-18T06:20:22.710Z,23.70
2018-09-18T06:22:51.140Z,23.80
2018-09-18T06:25:19.542Z,23.90
2018-09-18T06:27:47.962Z,23.90
2018-09-18T06:30:29.540Z,23.90
2018-09-18T06:32:57.922Z,23.90
2018-09-18T06:35:26.401Z,24.00
2018-09-18T06:37:54.815Z,24.00
2018-09-18T06:40:23.254Z,24.00
2018-09-18T06:42:51.692Z,24.10
2018-09-18T06:45:20.082Z,24.20
2018-09-18T06:47:48.514Z,24.20
2018-09-18T06:50:16.929Z,24.20
2018-09-18T06:52:45.363Z,24.30
2018-09-18T06:55:13.784Z,24.30
2018-09-18T06:57:42.216Z,24.30
2018-09-18T07:00:10.599Z,24.30
2018-09-18T07:02:38.991Z,24.40
2018-09-18T07:05:07.401Z,24.40
2018-09-18T07:07:35.804Z,24.30
2018-09-18T07:10:04.275Z,24.40
2018-09-18T07:12:32.759Z,24.40
2018-09-18T07:15:01.152Z,24.40
2018-09-18T07:17:29.543Z,24.40
2018-09-18T07:19:57.977Z,24.40
2018-09-18T07:22:26.403Z,24.40
2018-09-18T07:24:54.892Z,24.40
2018-09-18T07:27:23.217Z,24.40
2018-09-18T07:29:51.603Z,24.40
2018-09-18T07:32:19.978Z,24.40
2018-09-18T07:34:48.374Z,24.40
2018-09-18T07:37:16.769Z,24.40
2018-09-18T07:39:45.187Z,24.40
2018-09-18T07:42:13.602Z,24.40
2018-09-18T07:44:42.003Z,24.50
2018-09-18T07:47:10.406Z,24.40
2018-09-18T07:49:38.822Z,24.50
2018-09-18T07:52:07.251Z,24.50
2018-09-18T07:54:35.692Z,24.60
2018-09-18T07:57:04.130Z,24.60
2018-09-18T07:59:32.550Z,24.60
2018-09-18T08:02:01.023Z,24.60
2018-09-18T08:04:29.439Z,24.60
2018-09-18T08:06:57.855Z,24.60
2018-09-18T08:09:26.259Z,24.60
2018-09-18T08:11:54.669Z,24.60
2018-09-18T08:14:23.087Z,24.60
2018-09-18T08:16:51.454Z,24.70
2018-09-18T08:19:19.915Z,24.70
2018-09-18T08:21:48.310Z,24.70
2018-09-18T08:24:16.744Z,24.70
2018-09-18T08:26:45.143Z,24.80
2018-09-18T08:29:13.660Z,24.70
2018-09-18T08:31:42.438Z,24.70
2018-09-18T08:34:10.912Z,24.70
2018-09-18T08:36:39.317Z,24.80
2018-09-18T08:39:08.835Z,24.70
2018-09-18T08:41:37.597Z,24.80
2018-09-18T08:44:05.994Z,24.70
2018-09-18T08:46:34.566Z,24.80
2018-09-18T08:49:03.120Z,24.80
2018-09-18T08:51:31.576Z,24.90
2018-09-18T08:54:00.047Z,24.90
2018-09-18T08:56:28.563Z,24.90
2018-09-18T08:58:57.044Z,24.90
2018-09-18T09:01:25.552Z,24.90
2018-09-18T09:03:54.033Z,24.90
2018-09-18T09:06:22.582Z,24.90
2018-09-18T09:08:51.059Z,25.00
2018-09-18T09:11:19.357Z,25.00
2018-09-18T09:13:47.790Z,25.00
2018-09-18T09:16:16.195Z,25.00
2018-09-18T09:18:44.643Z,25.00
2018-09-18T09:21:13.123Z,25.10
2018-09-18T09:23:41.496Z,25.00
2018-09-18T09:26:10.003Z,25.00
2018-09-18T09:28:38.471Z,25.00
2018-09-18T09:31:06.903Z,25.00
2018-09-18T09:33:35.359Z,25.00
2018-09-18T09:36:03.757Z,25.00
2018-09-18T09:38:32.174Z,25.00
2018-09-18T09:41:00.637Z,25.10
2018-09-18T09:43:29.065Z,25.10
2018-09-18T09:45:57.447Z,25.00
2018-09-18T09:48:25.825Z,25.00
2018-09-18T09:50:54.202Z,25.10
2018-09-18T09:53:22.611Z,25.10
2018-09-18T09:55:51.025Z,25.10
2018-09-18T09:58:19.459Z,25.10
2018-09-18T10:00:53.181Z,25.10
2018-09-18T10:03:21.569Z,25.10
2018-09-18T10:05:50.002Z,25.10
2018-09-18T10:08:18.406Z,25.10
2018-09-18T10:10:47.038Z,25.10
2018-09-18T10:13:15.275Z,25.10
2018-09-18T10:15:43.768Z,25.10
2018-09-18T10:18:12.298Z,25.20
2018-09-18T10:20:40.732Z,25.10
2018-09-18T10:23:09.233Z,25.20
2018-09-18T10:25:37.721Z,25.20
2018-09-18T10:28:06.380Z,25.10
2018-09-18T10:30:34.794Z,25.10
2018-09-18T10:33:03.306Z,25.20
2018-09-18T10:35:31.694Z,25.20
2018-09-18T10:38:00.107Z,25.10
2018-09-18T10:40:28.613Z,25.10
2018-09-18T10:42:57.142Z,25.10
2018-09-18T10:45:25.564Z,25.10
2018-09-18T10:47:54.033Z,25.10
2018-09-18T10:50:22.452Z,25.30
2018-09-18T10:52:50.941Z,25.40
2018-09-18T10:55:19.454Z,25.50
2018-09-18T10:57:48.060Z,25.40
2018-09-18T11:00:16.542Z,25.50
2018-09-18T11:02:45.001Z,25.60
2018-09-18T11:05:13.613Z,25.60
2018-09-18T11:07:42.116Z,25.60
2018-09-18T11:10:10.559Z,25.70
2018-09-18T11:12:38.977Z,25.70
2018-09-18T11:15:07.314Z,25.60
2018-09-18T11:17:35.779Z,25.70
2018-09-18T11:20:04.427Z,25.60
2018-09-18T11:22:32.792Z,25.60
2018-09-18T11:25:01.310Z,25.70
2018-09-18T11:27:29.643Z,25.80
2018-09-18T11:29:58.052Z,25.70
2018-09-18T11:32:26.463Z,25.60
2018-09-18T11:34:54.865Z,25.60
2018-09-18T11:37:23.241Z,25.70
2018-09-18T11:39:51.657Z,25.70
2018-09-18T11:42:20.051Z,25.60
2018-09-18T11:44:48.481Z,25.60
2018-09-18T11:47:16.925Z,25.80
2018-09-18T11:49:45.303Z,25.80
2018-09-18T11:52:13.723Z,25.80
2018-09-18T11:54:42.126Z,25.70
2018-09-18T11:57:10.613Z,25.80
2018-09-18T11:59:39.010Z,25.80
2018-09-18T12:02:07.413Z,25.80
2018-09-18T12:04:35.854Z,25.80
2018-09-18T12:07:04.241Z,25.90
2018-09-18T12:09:32.667Z,25.90
2018-09-18T12:12:01.091Z,25.90
2018-09-18T12:14:30.147Z,25.90
2018-09-18T12:17:15.097Z,25.90
2018-09-18T12:20:02.807Z,25.90
2018-09-18T12:22:31.384Z,25.80
2018-09-18T12:24:59.791Z,25.90
2018-09-18T12:27:28.211Z,25.80
2018-09-18T12:29:56.594Z,25.90
2018-09-18T12:32:24.997Z,25.90
2018-09-18T12:34:53.433Z,25.90
2018-09-18T12:37:21.829Z,26.00
2018-09-18T12:39:50.220Z,26.00
2018-09-18T12:42:18.726Z,26.00
2018-09-18T12:44:47.115Z,25.90
2018-09-18T12:47:22.846Z,26.00
2018-09-18T12:49:51.525Z,26.00
2018-09-18T12:52:19.823Z,26.00
2018-09-18T12:54:48.265Z,26.00
2018-09-18T12:57:16.923Z,26.10
2018-09-18T12:59:45.226Z,26.10
2018-09-18T13:02:13.647Z,26.20
2018-09-18T13:04:42.080Z,26.20
2018-09-18T13:07:10.531Z,26.20
2018-09-18T13:09:39.021Z,26.10
2018-09-18T13:12:07.549Z,26.20
2018-09-18T13:14:35.972Z,26.20
2018-09-18T13:17:04.391Z,26.20
2018-09-18T13:19:32.831Z,26.20
2018-09-18T13:22:01.289Z,26.20
2018-09-18T13:24:29.743Z,26.20
2018-09-18T13:26:58.289Z,26.20
2018-09-18T13:29:30.826Z,26.20
2018-09-18T13:32:04.014Z,26.20
2018-09-18T13:34:39.737Z,26.20
2018-09-18T13:37:08.340Z,26.20
2018-09-18T13:39:39.003Z,26.20
2018-09-18T13:42:08.663Z,26.20
2018-09-18T13:44:37.466Z,26.20
2018-09-18T13:47:06.248Z,26.20
2018-09-18T13:49:34.750Z,26.20
2018-09-18T13:52:04.352Z,26.20
2018-09-18T13:54:33.070Z,26.20
2018-09-18T13:57:01.602Z,26.20
2018-09-18T13:59:30.108Z,26.20
2018-09-18T14:02:06.939Z,26.20
2018-09-18T14:04:35.548Z,26.20
2018-09-18T14:07:04.239Z,26.10
2018-09-18T14:09:34.103Z,26.00
2018-09-18T14:12:03.241Z,25.90
2018-09-18T14:14:34.148Z,25.90
2018-09-18T14:17:02.945Z,25.80
2018-09-18T14:19:32.166Z,25.80
2018-09-18T14:22:00.808Z,25.80
2018-09-18T14:24:29.451Z,25.70
2018-09-18T14:26:58.200Z,25.70
2018-09-18T14:29:26.863Z,25.60
2018-09-18T14:31:55.712Z,25.60
2018-09-18T14:34:24.365Z,25.60
2018-09-18T14:36:52.828Z,25.50
2018-09-18T14:39:21.427Z,25.50
2018-09-18T14:41:54.587Z,25.50
2018-09-18T14:44:23.115Z,25.50
2018-09-18T14:46:51.736Z,25.50
2018-09-18T14:49:20.863Z,25.40
2018-09-18T14:51:49.661Z,25.40
2018-09-18T14:54:40.083Z,25.40
2018-09-18T14:57:10.518Z,25.30
2018-09-18T14:59:39.055Z,25.30
2018-09-18T15:02:07.458Z,25.30
2018-09-18T15:04:35.845Z,25.30
2018-09-18T15:07:04.401Z,25.30
2018-09-18T15:09:32.973Z,25.30
2018-09-18T15:12:01.523Z,25.30
2018-09-18T15:14:29.989Z,25.20
2018-09-18T15:16:58.349Z,25.20
2018-09-18T15:19:26.777Z,25.20
2018-09-18T15:21:58.626Z,25.20
2018-09-18T15:24:27.253Z,25.20
2018-09-18T15:26:55.677Z,25.20
2018-09-18T15:29:24.673Z,25.10
2018-09-18T15:31:53.241Z,25.20
2018-09-18T15:34:22.554Z,25.20
2018-09-18T15:36:51.370Z,25.20
2018-09-18T15:39:20.165Z,25.20
2018-09-18T15:41:48.586Z,25.10
2018-09-18T15:44:17.081Z,25.10
2018-09-18T15:46:45.570Z,25.10
2018-09-18T15:49:13.943Z,25.10
2018-09-18T15:51:42.455Z,25.10
2018-09-18T15:54:10.832Z,25.10
2018-09-18T15:56:39.197Z,25.10
2018-09-18T15:59:07.715Z,25.10
2018-09-18T16:01:36.118Z,25.00
2018-09-18T16:04:04.516Z,25.00
2018-09-18T16:06:32.911Z,25.10
2018-09-18T16:09:01.329Z,25.00
2018-09-18T16:11:29.723Z,25.10
2018-09-18T16:13:58.121Z,25.10
2018-09-18T16:16:26.575Z,25.10
2018-09-18T16:18:54.954Z,25.00
2018-09-18T16:21:23.404Z,25.10
2018-09-18T16:23:51.800Z,25.10
2018-09-18T16:26:20.197Z,25.00
2018-09-18T16:28:48.760Z,25.00
2018-09-18T16:31:17.150Z,25.10
2018-09-18T16:33:45.628Z,25.00
2018-09-18T16:36:14.077Z,25.00
2018-09-18T16:38:42.485Z,25.00
2018-09-18T16:41:10.869Z,25.00
2018-09-18T16:43:39.256Z,25.00
2018-09-18T16:46:07.863Z,25.00
2018-09-18T16:48:36.324Z,25.00
2018-09-18T16:51:04.661Z,25.00
2018-09-18T16:53:33.049Z,24.90
2018-09-18T16:56:02.571Z,24.90
2018-09-18T16:58:31.078Z,25.00
2018-09-18T17:00:59.437Z,25.00
2018-09-18T17:03:27.828Z,24.90
2018-09-18T17:05:56.293Z,24.90
2018-09-18T17:08:24.909Z,24.90
2018-09-18T17:10:53.321Z,24.90
2018-09-18T17:13:21.776Z,24.90
2018-09-18T17:16:08.244Z,24.90
2018-09-18T17:18:37.515Z,24.90
2018-09-18T17:21:06.506Z,24.90
2018-09-18T17:23:35.747Z,24.90
2018-09-18T17:26:13.633Z,24.90
2018-09-18T17:28:48.752Z,24.90
2018-09-18T17:31:17.190Z,24.90
2018-09-18T17:33:46.379Z,24.90
2018-09-18T17:36:16.436Z,24.90
2018-09-18T17:38:49.157Z,24.90
2018-09-18T17:41:19.204Z,24.90
2018-09-18T17:43:53.792Z,24.90
2018-09-18T17:46:22.874Z,24.90
2018-09-18T17:48:52.726Z,24.90
2018-09-18T17:51:21.860Z,24.90
2018-09-18T17:53:50.878Z,24.80
2018-09-18T17:56:20.588Z,24.80
2018-09-18T17:58:52.333Z,24.80
2018-09-18T18:01:21.533Z,24.90
2018-09-18T18:03:50.862Z,24.90
2018-09-18T18:06:19.815Z,24.80
2018-09-18T18:08:49.078Z,24.80
2018-09-18T18:11:18.162Z,24.80
2018-09-18T18:14:05.838Z,24.80
2018-09-18T18:16:34.725Z,24.80
2018-09-18T18:19:08.519Z,24.80
2018-09-18T18:21:41.717Z,24.70
2018-09-18T18:24:10.685Z,24.80
2018-09-18T18:26:39.618Z,24.80
2018-09-18T18:29:08.730Z,24.80
2018-09-18T18:31:37.501Z,24.80
2018-09-18T18:34:06.093Z,24.80
2018-09-18T18:36:34.556Z,24.70
2018-09-18T18:39:03.210Z,24.70
2018-09-18T18:41:31.726Z,24.70
2018-09-18T18:44:00.290Z,24.70
2018-09-18T18:46:28.879Z,24.70
2018-09-18T18:48:57.593Z,24.70
2018-09-18T18:51:26.200Z,24.70
2018-09-18T18:53:54.640Z,24.70
2018-09-18T18:56:23.082Z,24.70
2018-09-18T18:58:51.545Z,24.70
2018-09-18T19:01:19.975Z,24.70
2018-09-18T19:03:48.458Z,24.60
2018-09-18T19:06:17.143Z,24.60
2018-09-18T19:08:45.722Z,24.60
2018-09-18T19:11:14.178Z,24.60
2018-09-18T19:13:42.609Z,24.60
2018-09-18T19:16:11.078Z,24.60
2018-09-18T19:18:39.560Z,24.60
2018-09-18T19:21:07.982Z,24.60
2018-09-18T19:23:36.488Z,24.60
2018-09-18T19:26:04.857Z,24.60
2018-09-18T19:28:33.377Z,24.60
2018-09-18T19:31:01.797Z,24.60
2018-09-18T19:33:30.255Z,24.60
2018-09-18T19:35:58.703Z,24.60
2018-09-18T19:38:27.113Z,24.60
2018-09-18T19:40:55.550Z,24.60
2018-09-18T19:43:23.974Z,24.60
2018-09-18T19:45:52.399Z,24.60
2018-09-18T19:48:20.882Z,24.60
2018-09-18T19:50:49.318Z,24.60
2018-09-18T19:53:17.737Z,24.50
2018-09-18T19:55:46.166Z,24.50
2018-09-18T19:58:14.591Z,24.50
2018-09-18T20:00:43.064Z,24.50
2018-09-18T20:03:11.543Z,24.50
2018-09-18T20:05:39.979Z,24.50
2018-09-18T20:08:08.441Z,24.50
2018-09-18T20:10:36.838Z,24.50
2018-09-18T20:13:05.315Z,24.50
2018-09-18T20:15:33.754Z,24.50
2018-09-18T20:18:02.385Z,24.50
2018-09-18T20:20:30.869Z,24.50
2018-09-18T20:22:59.299Z,24.50
2018-09-18T20:25:27.729Z,24.50
2018-09-18T20:27:56.143Z,24.50
2018-09-18T20:30:24.559Z,24.50
2018-09-18T20:32:53.099Z,24.50
2018-09-18T20:35:21.501Z,24.50
2018-09-18T20:37:49.991Z,24.40
2018-09-18T20:40:18.412Z,24.50
2018-09-18T20:42:46.840Z,24.50
2018-09-18T20:45:15.252Z,24.50
2018-09-18T20:47:43.668Z,24.50
2018-09-18T20:50:12.102Z,24.50
2018-09-18T20:52:40.534Z,24.50
2018-09-18T20:55:08.957Z,24.50
2018-09-18T20:57:37.385Z,24.40
2018-09-18T21:00:05.816Z,24.50
2018-09-18T21:02:34.716Z,24.40
2018-09-18T21:05:03.621Z,24.50
2018-09-18T21:07:32.505Z,24.40
2018-09-18T21:10:01.320Z,24.40
2018-09-18T21:12:30.329Z,24.40
2018-09-18T21:14:58.784Z,24.40
2018-09-18T21:17:27.231Z,24.40
2018-09-18T21:19:55.875Z,24.40
2018-09-18T21:22:24.305Z,24.40
2018-09-18T21:25:23.479Z,24.40
2018-09-18T21:27:51.899Z,24.30
2018-09-18T21:30:20.379Z,24.40
2018-09-18T21:32:48.846Z,24.40
2018-09-18T21:35:17.363Z,24.40
2018-09-18T21:37:45.821Z,24.40
2018-09-18T21:40:14.268Z,24.40
2018-09-18T21:42:42.714Z,24.40
2018-09-18T21:45:11.139Z,24.40
2018-09-18T21:47:39.570Z,24.40
2018-09-18T21:50:08.104Z,24.40
2018-09-18T21:52:36.573Z,24.40
2018-09-18T21:55:05.010Z,24.40
2018-09-18T21:57:33.439Z,24.30
2018-09-18T22:00:01.914Z,24.40
2018-09-18T22:02:30.341Z,24.30
2018-09-18T22:04:58.760Z,24.40
2018-09-18T22:07:27.199Z,24.40
2018-09-18T22:09:55.929Z,24.30
2018-09-18T22:12:24.402Z,24.30
2018-09-18T22:14:52.820Z,24.40
2018-09-18T22:17:21.256Z,24.30
2018-09-18T22:19:50.516Z,24.40
2018-09-18T22:22:19.005Z,24.30
2018-09-18T22:24:47.405Z,24.30
2018-09-18T22:27:15.837Z,24.30
2018-09-18T22:29:44.284Z,24.40
2018-09-18T22:32:12.734Z,24.30
2018-09-18T22:34:41.147Z,24.30
2018-09-18T22:37:09.594Z,24.30
2018-09-18T22:39:38.033Z,24.30
2018-09-18T22:42:06.657Z,24.30
2018-09-18T22:44:35.089Z,24.30
2018-09-18T22:47:03.671Z,24.30
2018-09-18T22:49:32.102Z,24.30
2018-09-18T22:52:00.528Z,24.30
2018-09-18T22:54:28.964Z,24.30
2018-09-18T22:56:57.404Z,24.30
2018-09-18T22:59:25.825Z,24.30
2018-09-18T23:01:54.270Z,24.30
2018-09-18T23:04:22.687Z,24.30
2018-09-18T23:06:51.173Z,24.30
2018-09-18T23:09:19.672Z,24.30
2018-09-18T23:11:48.051Z,24.30
2018-09-18T23:14:16.522Z,24.30
2018-09-18T23:16:44.926Z,24.30
2018-09-18T23:19:13.345Z,24.30
2018-09-18T23:21:41.713Z,24.30
2018-09-18T23:24:10.291Z,24.30
2018-09-18T23:26:39.216Z,24.30
2018-09-18T23:29:08.092Z,24.20
2018-09-18T23:31:37.000Z,24.30
2018-09-18T23:34:05.409Z,24.30
2018-09-18T23:36:33.819Z,24.30
2018-09-18T23:39:02.211Z,24.30
2018-09-18T23:41:30.678Z,24.30
2018-09-18T23:43:59.057Z,24.30
2018-09-18T23:46:27.443Z,24.30
2018-09-18T23:48:55.837Z,24.30
2018-09-18T23:51:24.250Z,24.30
2018-09-18T23:53:52.625Z,24.30
2018-09-18T23:56:20.998Z,24.20
2018-09-18T23:58:49.366Z,24.20
